sensor_id;sensor_type;location;lat;lon;timestamp;P1;durP1;ratioP1;P2;durP2;ratioP2
48268;SDS011;34088;52.232;5.196;2023-02-16T00:01:26;71.85;;;43.85;;
48268;SDS011;34088;52.232;5.196;2023-02-16T00:03:55;69.03;;;43.50;;
48268;SDS011;34088;52.232;5.196;2023-02-16T00:06:21;75.80;;;45.05;;
48268;SDS011;34088;52.232;5.196;2023-02-16T00:08:49;73.38;;;44.33;;
48268;SDS011;34088;52.232;5.196;2023-02-16T00:14:09;78.15;;;44.55;;
48268;SDS011;34088;52.232;5.196;2023-02-16T00:16:35;77.55;;;45.03;;
48268;SDS011;34088;52.232;5.196;2023-02-16T00:33:14;80.13;;;46.50;;
48268;SDS011;34088;52.232;5.196;2023-02-16T00:35:41;85.57;;;47.85;;
48268;SDS011;34088;52.232;5.196;2023-02-16T00:38:06;80.18;;;48.45;;
48268;SDS011;34088;52.232;5.196;2023-02-16T00:40:32;81.45;;;47.33;;
48268;SDS011;34088;52.232;5.196;2023-02-16T00:45:23;84.27;;;47.53;;
48268;SDS011;34088;52.232;5.196;2023-02-16T00:47:50;85.40;;;49.17;;
48268;SDS011;34088;52.232;5.196;2023-02-16T00:52:49;84.50;;;49.63;;
48268;SDS011;34088;52.232;5.196;2023-02-16T00:57:43;83.97;;;47.85;;
48268;SDS011;34088;52.232;5.196;2023-02-16T01:05:17;88.38;;;50.00;;
48268;SDS011;34088;52.232;5.196;2023-02-16T01:07:43;85.15;;;49.40;;
48268;SDS011;34088;52.232;5.196;2023-02-16T01:10:28;83.65;;;49.40;;
48268;SDS011;34088;52.232;5.196;2023-02-16T01:13:12;82.05;;;49.70;;
48268;SDS011;34088;52.232;5.196;2023-02-16T01:15:38;84.28;;;49.88;;
48268;SDS011;34088;52.232;5.196;2023-02-16T01:18:04;83.65;;;49.30;;
48268;SDS011;34088;52.232;5.196;2023-02-16T01:20:30;83.22;;;49.92;;
48268;SDS011;34088;52.232;5.196;2023-02-16T01:25:21;83.82;;;49.25;;
48268;SDS011;34088;52.232;5.196;2023-02-16T01:30:14;81.68;;;47.75;;
48268;SDS011;34088;52.232;5.196;2023-02-16T01:32:44;82.78;;;48.35;;
48268;SDS011;34088;52.232;5.196;2023-02-16T01:35:18;80.93;;;49.50;;
48268;SDS011;34088;52.232;5.196;2023-02-16T01:37:49;82.25;;;49.08;;
48268;SDS011;34088;52.232;5.196;2023-02-16T01:40:21;80.47;;;48.45;;
48268;SDS011;34088;52.232;5.196;2023-02-16T01:45:45;84.88;;;50.45;;
48268;SDS011;34088;52.232;5.196;2023-02-16T01:48:24;81.13;;;49.53;;
48268;SDS011;34088;52.232;5.196;2023-02-16T01:50:57;84.50;;;49.83;;
48268;SDS011;34088;52.232;5.196;2023-02-16T01:53:31;80.93;;;48.35;;
48268;SDS011;34088;52.232;5.196;2023-02-16T01:56:03;82.70;;;48.70;;
48268;SDS011;34088;52.232;5.196;2023-02-16T01:58:49;78.28;;;48.25;;
48268;SDS011;34088;52.232;5.196;2023-02-16T02:04:24;80.72;;;49.05;;
48268;SDS011;34088;52.232;5.196;2023-02-16T02:07:31;82.88;;;49.05;;
48268;SDS011;34088;52.232;5.196;2023-02-16T02:10:08;79.70;;;48.90;;
48268;SDS011;34088;52.232;5.196;2023-02-16T02:12:54;78.68;;;48.13;;
48268;SDS011;34088;52.232;5.196;2023-02-16T02:15:25;75.20;;;47.78;;
48268;SDS011;34088;52.232;5.196;2023-02-16T02:17:54;78.53;;;48.22;;
48268;SDS011;34088;52.232;5.196;2023-02-16T02:20:30;81.60;;;47.95;;
48268;SDS011;34088;52.232;5.196;2023-02-16T02:23:46;78.78;;;47.08;;
48268;SDS011;34088;52.232;5.196;2023-02-16T02:26:30;77.38;;;46.55;;
48268;SDS011;34088;52.232;5.196;2023-02-16T02:37:15;74.20;;;45.72;;
48268;SDS011;34088;52.232;5.196;2023-02-16T02:45:27;74.78;;;45.40;;
48268;SDS011;34088;52.232;5.196;2023-02-16T02:47:56;77.30;;;47.08;;
48268;SDS011;34088;52.232;5.196;2023-02-16T02:50:31;78.53;;;46.10;;
48268;SDS011;34088;52.232;5.196;2023-02-16T02:53:38;74.85;;;44.67;;
48268;SDS011;34088;52.232;5.196;2023-02-16T02:56:07;72.47;;;45.92;;
48268;SDS011;34088;52.232;5.196;2023-02-16T02:58:55;70.50;;;43.83;;
48268;SDS011;34088;52.232;5.196;2023-02-16T03:01:43;74.90;;;45.80;;
48268;SDS011;34088;52.232;5.196;2023-02-16T03:04:12;75.97;;;45.80;;
48268;SDS011;34088;52.232;5.196;2023-02-16T03:06:41;75.25;;;45.35;;
48268;SDS011;34088;52.232;5.196;2023-02-16T03:09:10;72.00;;;43.95;;
48268;SDS011;34088;52.232;5.196;2023-02-16T03:11:38;73.75;;;45.90;;
48268;SDS011;34088;52.232;5.196;2023-02-16T03:14:27;68.50;;;44.17;;
48268;SDS011;34088;52.232;5.196;2023-02-16T03:17:10;70.20;;;43.47;;
48268;SDS011;34088;52.232;5.196;2023-02-16T03:19:55;72.97;;;45.60;;
48268;SDS011;34088;52.232;5.196;2023-02-16T03:22:41;71.45;;;43.58;;
48268;SDS011;34088;52.232;5.196;2023-02-16T03:25:28;69.70;;;43.70;;
48268;SDS011;34088;52.232;5.196;2023-02-16T03:28:15;70.40;;;43.53;;
48268;SDS011;34088;52.232;5.196;2023-02-16T03:31:00;74.68;;;45.25;;
48268;SDS011;34088;52.232;5.196;2023-02-16T03:33:27;74.18;;;44.60;;
48268;SDS011;34088;52.232;5.196;2023-02-16T03:35:53;77.43;;;46.45;;
48268;SDS011;34088;52.232;5.196;2023-02-16T03:38:19;74.50;;;44.45;;
48268;SDS011;34088;52.232;5.196;2023-02-16T03:40:46;75.15;;;45.35;;
48268;SDS011;34088;52.232;5.196;2023-02-16T03:43:12;69.88;;;44.03;;
48268;SDS011;34088;52.232;5.196;2023-02-16T03:45:38;68.85;;;43.38;;
48268;SDS011;34088;52.232;5.196;2023-02-16T03:48:06;71.05;;;43.78;;
48268;SDS011;34088;52.232;5.196;2023-02-16T03:50:32;73.88;;;45.45;;
48268;SDS011;34088;52.232;5.196;2023-02-16T03:52:57;70.10;;;43.75;;
48268;SDS011;34088;52.232;5.196;2023-02-16T03:55:35;73.55;;;44.53;;
48268;SDS011;34088;52.232;5.196;2023-02-16T03:58:06;72.13;;;44.40;;
48268;SDS011;34088;52.232;5.196;2023-02-16T04:00:32;70.35;;;44.10;;
48268;SDS011;34088;52.232;5.196;2023-02-16T04:02:58;69.88;;;44.15;;
48268;SDS011;34088;52.232;5.196;2023-02-16T04:05:24;70.55;;;43.45;;
48268;SDS011;34088;52.232;5.196;2023-02-16T04:07:49;69.35;;;43.47;;
48268;SDS011;34088;52.232;5.196;2023-02-16T04:12:40;70.95;;;42.70;;
48268;SDS011;34088;52.232;5.196;2023-02-16T04:17:37;66.15;;;42.50;;
48268;SDS011;34088;52.232;5.196;2023-02-16T04:20:03;70.13;;;44.30;;
48268;SDS011;34088;52.232;5.196;2023-02-16T04:22:29;71.05;;;43.28;;
48268;SDS011;34088;52.232;5.196;2023-02-16T04:24:55;73.65;;;42.75;;
48268;SDS011;34088;52.232;5.196;2023-02-16T04:27:21;70.40;;;43.42;;
48268;SDS011;34088;52.232;5.196;2023-02-16T04:29:46;68.00;;;43.00;;
48268;SDS011;34088;52.232;5.196;2023-02-16T04:34:37;70.93;;;43.97;;
48268;SDS011;34088;52.232;5.196;2023-02-16T04:37:03;65.80;;;43.33;;
48268;SDS011;34088;52.232;5.196;2023-02-16T04:39:29;76.55;;;46.60;;
48268;SDS011;34088;52.232;5.196;2023-02-16T04:41:55;72.53;;;44.42;;
48268;SDS011;34088;52.232;5.196;2023-02-16T04:46:46;71.07;;;43.47;;
48268;SDS011;34088;52.232;5.196;2023-02-16T04:51:37;73.75;;;43.85;;
48268;SDS011;34088;52.232;5.196;2023-02-16T04:54:04;71.72;;;43.65;;
48268;SDS011;34088;52.232;5.196;2023-02-16T04:56:30;70.22;;;44.38;;
48268;SDS011;34088;52.232;5.196;2023-02-16T04:58:55;73.05;;;46.10;;
48268;SDS011;34088;52.232;5.196;2023-02-16T05:03:47;72.57;;;44.42;;
48268;SDS011;34088;52.232;5.196;2023-02-16T05:06:13;71.65;;;44.22;;
48268;SDS011;34088;52.232;5.196;2023-02-16T05:08:38;72.53;;;45.10;;
48268;SDS011;34088;52.232;5.196;2023-02-16T05:11:04;76.82;;;46.28;;
48268;SDS011;34088;52.232;5.196;2023-02-16T05:13:48;71.07;;;44.72;;
48268;SDS011;34088;52.232;5.196;2023-02-16T05:16:32;75.10;;;44.75;;
48268;SDS011;34088;52.232;5.196;2023-02-16T05:18:57;74.40;;;46.78;;
48268;SDS011;34088;52.232;5.196;2023-02-16T05:21:23;74.10;;;46.00;;
48268;SDS011;34088;52.232;5.196;2023-02-16T05:23:55;73.65;;;46.08;;
48268;SDS011;34088;52.232;5.196;2023-02-16T05:26:22;73.97;;;45.25;;
48268;SDS011;34088;52.232;5.196;2023-02-16T05:28:47;71.05;;;46.17;;
48268;SDS011;34088;52.232;5.196;2023-02-16T05:31:13;69.93;;;46.33;;
48268;SDS011;34088;52.232;5.196;2023-02-16T05:33:38;76.57;;;47.20;;
48268;SDS011;34088;52.232;5.196;2023-02-16T05:36:04;73.22;;;45.70;;
48268;SDS011;34088;52.232;5.196;2023-02-16T05:40:55;74.95;;;45.20;;
48268;SDS011;34088;52.232;5.196;2023-02-16T05:43:21;74.90;;;47.50;;
48268;SDS011;34088;52.232;5.196;2023-02-16T05:45:46;73.05;;;46.60;;
48268;SDS011;34088;52.232;5.196;2023-02-16T05:48:12;72.15;;;45.75;;
48268;SDS011;34088;52.232;5.196;2023-02-16T05:50:37;74.38;;;46.42;;
48268;SDS011;34088;52.232;5.196;2023-02-16T05:53:03;73.82;;;45.78;;
48268;SDS011;34088;52.232;5.196;2023-02-16T05:55:28;72.00;;;46.92;;
48268;SDS011;34088;52.232;5.196;2023-02-16T05:57:54;73.10;;;46.20;;
48268;SDS011;34088;52.232;5.196;2023-02-16T06:00:19;71.78;;;46.10;;
48268;SDS011;34088;52.232;5.196;2023-02-16T06:02:45;71.57;;;44.88;;
48268;SDS011;34088;52.232;5.196;2023-02-16T06:05:10;73.45;;;45.55;;
48268;SDS011;34088;52.232;5.196;2023-02-16T06:07:36;74.38;;;46.72;;
48268;SDS011;34088;52.232;5.196;2023-02-16T06:10:02;74.32;;;46.63;;
48268;SDS011;34088;52.232;5.196;2023-02-16T06:12:28;69.97;;;44.85;;
48268;SDS011;34088;52.232;5.196;2023-02-16T06:14:55;71.45;;;45.72;;
48268;SDS011;34088;52.232;5.196;2023-02-16T06:17:21;70.82;;;46.58;;
48268;SDS011;34088;52.232;5.196;2023-02-16T06:19:47;75.03;;;47.20;;
48268;SDS011;34088;52.232;5.196;2023-02-16T06:22:12;75.82;;;45.90;;
48268;SDS011;34088;52.232;5.196;2023-02-16T06:27:03;72.45;;;45.38;;
48268;SDS011;34088;52.232;5.196;2023-02-16T06:29:29;76.10;;;46.03;;
48268;SDS011;34088;52.232;5.196;2023-02-16T06:31:54;73.65;;;44.85;;
48268;SDS011;34088;52.232;5.196;2023-02-16T06:34:20;76.18;;;46.28;;
48268;SDS011;34088;52.232;5.196;2023-02-16T06:36:45;75.47;;;48.42;;
48268;SDS011;34088;52.232;5.196;2023-02-16T06:39:11;70.25;;;44.85;;
48268;SDS011;34088;52.232;5.196;2023-02-16T06:41:37;75.85;;;48.20;;
48268;SDS011;34088;52.232;5.196;2023-02-16T06:44:08;77.20;;;47.45;;
48268;SDS011;34088;52.232;5.196;2023-02-16T06:46:36;77.03;;;47.55;;
48268;SDS011;34088;52.232;5.196;2023-02-16T06:49:02;79.68;;;47.90;;
48268;SDS011;34088;52.232;5.196;2023-02-16T06:51:28;76.05;;;47.42;;
48268;SDS011;34088;52.232;5.196;2023-02-16T06:53:53;72.88;;;46.55;;
48268;SDS011;34088;52.232;5.196;2023-02-16T06:56:19;75.15;;;47.15;;
48268;SDS011;34088;52.232;5.196;2023-02-16T07:01:10;73.32;;;45.88;;
48268;SDS011;34088;52.232;5.196;2023-02-16T07:03:36;78.30;;;47.28;;
48268;SDS011;34088;52.232;5.196;2023-02-16T07:06:02;79.43;;;48.50;;
48268;SDS011;34088;52.232;5.196;2023-02-16T07:08:28;78.93;;;47.03;;
48268;SDS011;34088;52.232;5.196;2023-02-16T07:10:53;77.47;;;49.10;;
48268;SDS011;34088;52.232;5.196;2023-02-16T07:13:19;76.03;;;47.85;;
48268;SDS011;34088;52.232;5.196;2023-02-16T07:15:45;79.60;;;48.92;;
48268;SDS011;34088;52.232;5.196;2023-02-16T07:18:10;77.25;;;48.22;;
48268;SDS011;34088;52.232;5.196;2023-02-16T07:20:36;76.57;;;48.13;;
48268;SDS011;34088;52.232;5.196;2023-02-16T07:23:02;78.05;;;47.60;;
48268;SDS011;34088;52.232;5.196;2023-02-16T07:25:27;74.72;;;48.15;;
48268;SDS011;34088;52.232;5.196;2023-02-16T07:27:53;76.82;;;48.35;;
48268;SDS011;34088;52.232;5.196;2023-02-16T07:30:19;77.00;;;47.58;;
48268;SDS011;34088;52.232;5.196;2023-02-16T07:32:45;76.32;;;47.28;;
48268;SDS011;34088;52.232;5.196;2023-02-16T07:35:11;76.40;;;48.03;;
48268;SDS011;34088;52.232;5.196;2023-02-16T07:37:36;78.20;;;47.92;;
48268;SDS011;34088;52.232;5.196;2023-02-16T07:40:02;77.00;;;48.38;;
48268;SDS011;34088;52.232;5.196;2023-02-16T07:42:28;77.85;;;48.47;;
48268;SDS011;34088;52.232;5.196;2023-02-16T07:44:55;79.68;;;49.00;;
48268;SDS011;34088;52.232;5.196;2023-02-16T07:47:21;83.30;;;49.30;;
48268;SDS011;34088;52.232;5.196;2023-02-16T07:49:46;79.03;;;48.95;;
48268;SDS011;34088;52.232;5.196;2023-02-16T07:52:12;78.28;;;48.78;;
48268;SDS011;34088;52.232;5.196;2023-02-16T07:54:38;77.97;;;47.97;;
48268;SDS011;34088;52.232;5.196;2023-02-16T07:59:29;81.82;;;48.97;;
48268;SDS011;34088;52.232;5.196;2023-02-16T08:01:55;77.07;;;46.58;;
48268;SDS011;34088;52.232;5.196;2023-02-16T08:04:20;78.45;;;47.25;;
48268;SDS011;34088;52.232;5.196;2023-02-16T08:06:46;80.25;;;49.80;;
48268;SDS011;34088;52.232;5.196;2023-02-16T08:09:12;82.13;;;48.97;;
48268;SDS011;34088;52.232;5.196;2023-02-16T08:11:39;82.50;;;47.92;;
48268;SDS011;34088;52.232;5.196;2023-02-16T08:14:05;75.85;;;47.63;;
48268;SDS011;34088;52.232;5.196;2023-02-16T08:16:30;79.65;;;47.00;;
48268;SDS011;34088;52.232;5.196;2023-02-16T08:18:56;77.82;;;48.28;;
48268;SDS011;34088;52.232;5.196;2023-02-16T08:21:26;77.93;;;48.03;;
48268;SDS011;34088;52.232;5.196;2023-02-16T08:24:00;80.05;;;48.03;;
48268;SDS011;34088;52.232;5.196;2023-02-16T08:29:01;76.97;;;48.50;;
48268;SDS011;34088;52.232;5.196;2023-02-16T08:31:27;74.55;;;47.50;;
48268;SDS011;34088;52.232;5.196;2023-02-16T08:33:54;76.13;;;48.15;;
48268;SDS011;34088;52.232;5.196;2023-02-16T08:36:21;80.60;;;49.78;;
48268;SDS011;34088;52.232;5.196;2023-02-16T08:38:49;77.07;;;48.60;;
48268;SDS011;34088;52.232;5.196;2023-02-16T08:41:20;83.15;;;48.55;;
48268;SDS011;34088;52.232;5.196;2023-02-16T08:43:47;76.80;;;46.58;;
48268;SDS011;34088;52.232;5.196;2023-02-16T08:46:13;79.45;;;50.72;;
48268;SDS011;34088;52.232;5.196;2023-02-16T08:48:39;81.78;;;49.67;;
48268;SDS011;34088;52.232;5.196;2023-02-16T08:51:05;78.75;;;49.03;;
48268;SDS011;34088;52.232;5.196;2023-02-16T08:53:34;77.88;;;49.75;;
48268;SDS011;34088;52.232;5.196;2023-02-16T08:56:01;77.93;;;48.50;;
48268;SDS011;34088;52.232;5.196;2023-02-16T08:58:28;82.88;;;49.67;;
48268;SDS011;34088;52.232;5.196;2023-02-16T09:00:54;83.78;;;52.30;;
48268;SDS011;34088;52.232;5.196;2023-02-16T09:03:20;85.22;;;51.97;;
48268;SDS011;34088;52.232;5.196;2023-02-16T09:05:46;84.97;;;52.75;;
48268;SDS011;34088;52.232;5.196;2023-02-16T09:08:16;88.38;;;53.22;;
48268;SDS011;34088;52.232;5.196;2023-02-16T09:10:43;84.68;;;53.17;;
48268;SDS011;34088;52.232;5.196;2023-02-16T09:13:08;91.18;;;54.30;;
48268;SDS011;34088;52.232;5.196;2023-02-16T09:15:38;89.68;;;55.03;;
48268;SDS011;34088;52.232;5.196;2023-02-16T09:18:04;90.63;;;55.33;;
48268;SDS011;34088;52.232;5.196;2023-02-16T09:20:29;89.05;;;56.10;;
48268;SDS011;34088;52.232;5.196;2023-02-16T09:25:20;95.93;;;57.13;;
48268;SDS011;34088;52.232;5.196;2023-02-16T09:27:48;96.70;;;57.20;;
48268;SDS011;34088;52.232;5.196;2023-02-16T09:30:14;96.88;;;56.60;;
48268;SDS011;34088;52.232;5.196;2023-02-16T09:32:39;98.30;;;59.53;;
48268;SDS011;34088;52.232;5.196;2023-02-16T09:35:06;95.07;;;56.97;;
48268;SDS011;34088;52.232;5.196;2023-02-16T09:37:32;96.03;;;56.88;;
48268;SDS011;34088;52.232;5.196;2023-02-16T09:39:57;99.13;;;58.78;;
48268;SDS011;34088;52.232;5.196;2023-02-16T09:45:08;93.05;;;55.92;;
48268;SDS011;34088;52.232;5.196;2023-02-16T09:47:39;93.75;;;58.67;;
48268;SDS011;34088;52.232;5.196;2023-02-16T09:50:21;96.20;;;57.88;;
48268;SDS011;34088;52.232;5.196;2023-02-16T09:53:03;96.32;;;58.10;;
48268;SDS011;34088;52.232;5.196;2023-02-16T09:55:37;100.18;;;58.35;;
48268;SDS011;34088;52.232;5.196;2023-02-16T09:58:14;97.32;;;59.00;;
48268;SDS011;34088;52.232;5.196;2023-02-16T10:01:03;98.18;;;58.63;;
48268;SDS011;34088;52.232;5.196;2023-02-16T10:06:29;96.63;;;58.78;;
48268;SDS011;34088;52.232;5.196;2023-02-16T10:09:08;97.72;;;60.28;;
48268;SDS011;34088;52.232;5.196;2023-02-16T10:11:39;93.70;;;57.55;;
48268;SDS011;34088;52.232;5.196;2023-02-16T10:19:44;96.07;;;59.85;;
48268;SDS011;34088;52.232;5.196;2023-02-16T10:25:04;92.63;;;56.97;;
48268;SDS011;34088;52.232;5.196;2023-02-16T10:27:40;89.95;;;55.78;;
48268;SDS011;34088;52.232;5.196;2023-02-16T10:30:18;90.57;;;56.78;;
48268;SDS011;34088;52.232;5.196;2023-02-16T10:32:55;95.53;;;58.00;;
48268;SDS011;34088;52.232;5.196;2023-02-16T10:35:28;93.07;;;57.92;;
48268;SDS011;34088;52.232;5.196;2023-02-16T10:38:13;94.75;;;58.33;;
48268;SDS011;34088;52.232;5.196;2023-02-16T10:40:49;93.38;;;57.33;;
48268;SDS011;34088;52.232;5.196;2023-02-16T10:43:33;93.40;;;57.80;;
48268;SDS011;34088;52.232;5.196;2023-02-16T10:46:06;91.53;;;55.03;;
48268;SDS011;34088;52.232;5.196;2023-02-16T10:48:42;89.63;;;57.13;;
48268;SDS011;34088;52.232;5.196;2023-02-16T10:51:09;98.60;;;59.88;;
48268;SDS011;34088;52.232;5.196;2023-02-16T10:53:48;95.18;;;57.75;;
48268;SDS011;34088;52.232;5.196;2023-02-16T10:58:47;99.35;;;59.40;;
48268;SDS011;34088;52.232;5.196;2023-02-16T11:01:19;95.85;;;59.58;;
48268;SDS011;34088;52.232;5.196;2023-02-16T11:04:01;98.38;;;60.28;;
48268;SDS011;34088;52.232;5.196;2023-02-16T11:06:27;96.78;;;59.53;;
48268;SDS011;34088;52.232;5.196;2023-02-16T11:08:54;94.20;;;58.10;;
48268;SDS011;34088;52.232;5.196;2023-02-16T11:11:25;91.78;;;56.03;;
48268;SDS011;34088;52.232;5.196;2023-02-16T11:14:02;94.40;;;58.30;;
48268;SDS011;34088;52.232;5.196;2023-02-16T11:16:33;95.35;;;59.40;;
48268;SDS011;34088;52.232;5.196;2023-02-16T11:19:17;93.22;;;57.20;;
48268;SDS011;34088;52.232;5.196;2023-02-16T11:21:48;92.10;;;57.25;;
48268;SDS011;34088;52.232;5.196;2023-02-16T11:24:23;93.22;;;57.92;;
48268;SDS011;34088;52.232;5.196;2023-02-16T11:27:02;95.47;;;57.08;;
48268;SDS011;34088;52.232;5.196;2023-02-16T11:29:34;89.03;;;56.38;;
48268;SDS011;34088;52.232;5.196;2023-02-16T11:32:04;91.07;;;55.70;;
48268;SDS011;34088;52.232;5.196;2023-02-16T11:34:32;88.05;;;57.08;;
48268;SDS011;34088;52.232;5.196;2023-02-16T11:37:02;93.38;;;56.65;;
48268;SDS011;34088;52.232;5.196;2023-02-16T11:39:38;92.80;;;56.10;;
48268;SDS011;34088;52.232;5.196;2023-02-16T11:42:08;87.28;;;56.58;;
48268;SDS011;34088;52.232;5.196;2023-02-16T11:44:47;88.32;;;56.38;;
48268;SDS011;34088;52.232;5.196;2023-02-16T11:49:47;85.28;;;54.50;;
48268;SDS011;34088;52.232;5.196;2023-02-16T11:52:18;85.55;;;54.70;;
48268;SDS011;34088;52.232;5.196;2023-02-16T11:54:51;86.78;;;54.38;;
48268;SDS011;34088;52.232;5.196;2023-02-16T11:57:31;86.68;;;54.55;;
48268;SDS011;34088;52.232;5.196;2023-02-16T12:00:00;85.82;;;52.85;;
48268;SDS011;34088;52.232;5.196;2023-02-16T12:02:39;86.65;;;54.92;;
48268;SDS011;34088;52.232;5.196;2023-02-16T12:05:49;80.13;;;51.60;;
48268;SDS011;34088;52.232;5.196;2023-02-16T12:08:30;81.68;;;51.10;;
48268;SDS011;34088;52.232;5.196;2023-02-16T12:13:56;76.28;;;50.25;;
48268;SDS011;34088;52.232;5.196;2023-02-16T12:16:46;70.25;;;47.63;;
48268;SDS011;34088;52.232;5.196;2023-02-16T12:22:07;71.97;;;47.40;;
48268;SDS011;34088;52.232;5.196;2023-02-16T12:30:22;63.55;;;42.13;;
48268;SDS011;34088;52.232;5.196;2023-02-16T12:46:23;49.78;;;33.20;;
48268;SDS011;34088;52.232;5.196;2023-02-16T12:48:57;50.25;;;33.10;;
48268;SDS011;34088;52.232;5.196;2023-02-16T12:51:31;49.58;;;33.63;;
48268;SDS011;34088;52.232;5.196;2023-02-16T12:54:18;48.65;;;34.05;;
48268;SDS011;34088;52.232;5.196;2023-02-16T12:56:53;48.38;;;31.55;;
48268;SDS011;34088;52.232;5.196;2023-02-16T12:59:41;49.95;;;32.95;;
48268;SDS011;34088;52.232;5.196;2023-02-16T13:02:13;47.28;;;30.73;;
48268;SDS011;34088;52.232;5.196;2023-02-16T13:05:04;50.25;;;32.00;;
48268;SDS011;34088;52.232;5.196;2023-02-16T13:07:38;51.20;;;33.30;;
48268;SDS011;34088;52.232;5.196;2023-02-16T13:10:16;52.60;;;34.75;;
48268;SDS011;34088;52.232;5.196;2023-02-16T13:12:50;50.95;;;33.22;;
48268;SDS011;34088;52.232;5.196;2023-02-16T13:15:25;49.47;;;33.05;;
48268;SDS011;34088;52.232;5.196;2023-02-16T13:18:06;51.20;;;34.33;;
48268;SDS011;34088;52.232;5.196;2023-02-16T13:20:35;50.58;;;34.25;;
48268;SDS011;34088;52.232;5.196;2023-02-16T13:26:36;52.10;;;34.28;;
48268;SDS011;34088;52.232;5.196;2023-02-16T13:30:02;50.50;;;35.33;;
48268;SDS011;34088;52.232;5.196;2023-02-16T13:32:36;49.97;;;34.70;;
48268;SDS011;34088;52.232;5.196;2023-02-16T13:43:51;46.47;;;31.42;;
48268;SDS011;34088;52.232;5.196;2023-02-16T13:46:31;46.53;;;32.83;;
48268;SDS011;34088;52.232;5.196;2023-02-16T13:48:58;47.95;;;31.70;;
48268;SDS011;34088;52.232;5.196;2023-02-16T13:51:26;47.20;;;30.83;;
48268;SDS011;34088;52.232;5.196;2023-02-16T13:54:01;46.20;;;32.35;;
48268;SDS011;34088;52.232;5.196;2023-02-16T13:58:54;47.40;;;32.10;;
48268;SDS011;34088;52.232;5.196;2023-02-16T14:03:56;43.78;;;30.33;;
48268;SDS011;34088;52.232;5.196;2023-02-16T14:22:56;39.60;;;27.45;;
48268;SDS011;34088;52.232;5.196;2023-02-16T14:27:55;41.10;;;27.83;;
48268;SDS011;34088;52.232;5.196;2023-02-16T14:35:41;38.28;;;26.90;;
48268;SDS011;34088;52.232;5.196;2023-02-16T14:40:59;39.05;;;27.00;;
48268;SDS011;34088;52.232;5.196;2023-02-16T14:46:04;39.08;;;27.80;;
48268;SDS011;34088;52.232;5.196;2023-02-16T14:49:03;41.13;;;27.70;;
48268;SDS011;34088;52.232;5.196;2023-02-16T14:51:57;41.10;;;27.13;;
48268;SDS011;34088;52.232;5.196;2023-02-16T15:02:23;47.20;;;29.77;;
48268;SDS011;34088;52.232;5.196;2023-02-16T15:04:53;44.08;;;29.67;;
48268;SDS011;34088;52.232;5.196;2023-02-16T15:07:19;43.35;;;28.38;;
48268;SDS011;34088;52.232;5.196;2023-02-16T15:09:46;46.25;;;29.75;;
48268;SDS011;34088;52.232;5.196;2023-02-16T15:12:14;50.50;;;30.08;;
48268;SDS011;34088;52.232;5.196;2023-02-16T15:15:02;47.47;;;30.27;;
48268;SDS011;34088;52.232;5.196;2023-02-16T15:17:47;45.38;;;29.35;;
48268;SDS011;34088;52.232;5.196;2023-02-16T15:20:22;46.63;;;29.00;;
48268;SDS011;34088;52.232;5.196;2023-02-16T15:22:56;43.05;;;28.95;;
48268;SDS011;34088;52.232;5.196;2023-02-16T15:25:37;41.47;;;28.85;;
48268;SDS011;34088;52.232;5.196;2023-02-16T15:28:14;45.55;;;30.38;;
48268;SDS011;34088;52.232;5.196;2023-02-16T15:35:50;41.90;;;30.05;;
48268;SDS011;34088;52.232;5.196;2023-02-16T15:38:22;44.85;;;29.75;;
48268;SDS011;34088;52.232;5.196;2023-02-16T15:40:53;48.45;;;32.00;;
48268;SDS011;34088;52.232;5.196;2023-02-16T15:46:03;50.47;;;32.70;;
48268;SDS011;34088;52.232;5.196;2023-02-16T15:48:34;49.97;;;32.45;;
48268;SDS011;34088;52.232;5.196;2023-02-16T15:53:36;46.25;;;30.40;;
48268;SDS011;34088;52.232;5.196;2023-02-16T15:56:22;50.05;;;33.30;;
48268;SDS011;34088;52.232;5.196;2023-02-16T16:04:25;47.65;;;33.38;;
48268;SDS011;34088;52.232;5.196;2023-02-16T16:06:52;50.13;;;34.58;;
48268;SDS011;34088;52.232;5.196;2023-02-16T16:09:20;51.90;;;33.92;;
48268;SDS011;34088;52.232;5.196;2023-02-16T16:11:45;55.47;;;35.58;;
48268;SDS011;34088;52.232;5.196;2023-02-16T16:14:11;54.78;;;36.03;;
48268;SDS011;34088;52.232;5.196;2023-02-16T16:16:38;51.67;;;35.83;;
48268;SDS011;34088;52.232;5.196;2023-02-16T16:19:05;55.90;;;35.90;;
48268;SDS011;34088;52.232;5.196;2023-02-16T16:21:48;55.92;;;35.50;;
48268;SDS011;34088;52.232;5.196;2023-02-16T16:24:31;56.40;;;36.75;;
48268;SDS011;34088;52.232;5.196;2023-02-16T16:27:08;58.85;;;36.88;;
48268;SDS011;34088;52.232;5.196;2023-02-16T16:32:05;58.38;;;38.92;;
48268;SDS011;34088;52.232;5.196;2023-02-16T16:37:01;56.17;;;36.10;;
48268;SDS011;34088;52.232;5.196;2023-02-16T16:39:32;55.72;;;36.67;;
48268;SDS011;34088;52.232;5.196;2023-02-16T16:44:29;53.15;;;35.58;;
48268;SDS011;34088;52.232;5.196;2023-02-16T16:46:56;56.65;;;36.67;;
48268;SDS011;34088;52.232;5.196;2023-02-16T16:49:21;54.85;;;36.20;;
48268;SDS011;34088;52.232;5.196;2023-02-16T16:51:50;54.72;;;36.65;;
48268;SDS011;34088;52.232;5.196;2023-02-16T16:54:32;57.33;;;35.90;;
48268;SDS011;34088;52.232;5.196;2023-02-16T16:57:01;56.08;;;35.08;;
48268;SDS011;34088;52.232;5.196;2023-02-16T16:59:30;56.50;;;36.63;;
48268;SDS011;34088;52.232;5.196;2023-02-16T17:01:56;61.63;;;38.30;;
48268;SDS011;34088;52.232;5.196;2023-02-16T17:04:21;56.33;;;38.05;;
48268;SDS011;34088;52.232;5.196;2023-02-16T17:06:47;59.58;;;37.03;;
48268;SDS011;34088;52.232;5.196;2023-02-16T17:09:12;55.92;;;36.60;;
48268;SDS011;34088;52.232;5.196;2023-02-16T17:11:38;57.28;;;37.25;;
48268;SDS011;34088;52.232;5.196;2023-02-16T17:16:35;56.47;;;37.92;;
48268;SDS011;34088;52.232;5.196;2023-02-16T17:19:02;62.75;;;38.55;;
48268;SDS011;34088;52.232;5.196;2023-02-16T17:21:28;54.90;;;35.72;;
48268;SDS011;34088;52.232;5.196;2023-02-16T17:23:53;63.88;;;41.45;;
48268;SDS011;34088;52.232;5.196;2023-02-16T17:26:20;62.20;;;40.33;;
48268;SDS011;34088;52.232;5.196;2023-02-16T17:28:46;60.58;;;38.90;;
48268;SDS011;34088;52.232;5.196;2023-02-16T17:31:11;60.05;;;37.67;;
48268;SDS011;34088;52.232;5.196;2023-02-16T17:33:37;53.10;;;34.92;;
48268;SDS011;34088;52.232;5.196;2023-02-16T17:36:03;61.05;;;40.85;;
48268;SDS011;34088;52.232;5.196;2023-02-16T17:38:29;56.85;;;39.10;;
48268;SDS011;34088;52.232;5.196;2023-02-16T17:40:55;61.53;;;39.35;;
48268;SDS011;34088;52.232;5.196;2023-02-16T17:43:22;65.43;;;42.00;;
48268;SDS011;34088;52.232;5.196;2023-02-16T17:45:48;59.92;;;39.00;;
48268;SDS011;34088;52.232;5.196;2023-02-16T17:48:15;62.15;;;40.25;;
48268;SDS011;34088;52.232;5.196;2023-02-16T17:50:53;69.07;;;42.90;;
48268;SDS011;34088;52.232;5.196;2023-02-16T17:53:20;56.63;;;37.78;;
48268;SDS011;34088;52.232;5.196;2023-02-16T17:55:47;58.60;;;38.95;;
48268;SDS011;34088;52.232;5.196;2023-02-16T17:58:14;60.60;;;39.15;;
48268;SDS011;34088;52.232;5.196;2023-02-16T18:00:40;63.55;;;39.50;;
48268;SDS011;34088;52.232;5.196;2023-02-16T18:03:07;60.97;;;38.45;;
48268;SDS011;34088;52.232;5.196;2023-02-16T18:05:33;57.92;;;36.55;;
48268;SDS011;34088;52.232;5.196;2023-02-16T18:07:58;61.85;;;38.63;;
48268;SDS011;34088;52.232;5.196;2023-02-16T18:10:35;56.88;;;37.47;;